createdAt,value
2023-04-08T00:00:50.582Z,0.40
2023-04-08T00:01:53.655Z,0.50
2023-04-08T00:02:56.714Z,0.55
2023-04-08T00:03:59.912Z,0.49
2023-04-08T00:05:03.449Z,0.57
2023-04-08T00:06:06.377Z,0.55
2023-04-08T00:07:09.344Z,0.42
2023-04-08T00:08:12.241Z,0.53
2023-04-08T00:09:15.097Z,0.67
2023-04-08T00:10:18.195Z,0.55
2023-04-08T00:11:21.052Z,0.91
2023-04-08T00:12:23.926Z,1.00
2023-04-08T00:13:26.899Z,1.13
2023-04-08T00:14:29.571Z,1.08
2023-04-08T00:15:33.073Z,0.58
2023-04-08T00:16:36.097Z,0.62
2023-04-08T00:17:38.762Z,0.83
2023-04-08T00:18:41.509Z,0.62
2023-04-08T00:19:44.172Z,0.58
2023-04-08T00:20:46.752Z,0.55
2023-04-08T00:21:49.920Z,0.82
2023-04-08T00:22:52.593Z,0.56
2023-04-08T00:23:55.261Z,0.53
2023-04-08T00:24:58.111Z,0.59
2023-04-08T00:26:01.300Z,0.57
2023-04-08T00:27:03.881Z,0.59
2023-04-08T00:28:06.968Z,0.47
2023-04-08T00:29:09.918Z,0.62
2023-04-08T00:30:12.696Z,0.58
2023-04-08T00:31:17.602Z,0.51
2023-04-08T00:32:20.396Z,0.45
2023-04-08T00:33:23.277Z,0.42
2023-04-08T00:34:26.348Z,0.52
2023-04-08T00:35:29.349Z,0.43
2023-04-08T00:36:32.089Z,0.48
2023-04-08T00:37:34.970Z,0.52
2023-04-08T00:38:37.838Z,0.50
2023-04-08T00:39:40.621Z,0.54
2023-04-08T00:40:43.394Z,0.57
2023-04-08T00:41:46.155Z,0.53
2023-04-08T00:42:48.926Z,0.55
2023-04-08T00:43:51.710Z,0.43
2023-04-08T00:44:54.580Z,0.51
2023-04-08T00:45:57.494Z,0.52
2023-04-08T00:47:00.742Z,0.42
2023-04-08T00:48:03.625Z,0.55
2023-04-08T00:49:06.376Z,0.77
2023-04-08T00:50:09.289Z,0.52
2023-04-08T00:51:12.131Z,0.51
2023-04-08T00:52:15.208Z,0.76
2023-04-08T00:53:17.988Z,0.63
2023-04-08T00:54:20.863Z,0.42
2023-04-08T00:55:23.625Z,0.51
2023-04-08T00:56:26.500Z,0.60
2023-04-08T00:57:29.792Z,0.52
2023-04-08T00:58:32.556Z,0.46
2023-04-08T00:59:35.329Z,0.47
2023-04-08T01:00:38.202Z,0.52
2023-04-08T01:01:41.188Z,0.57
2023-04-08T01:02:44.468Z,0.49
2023-04-08T01:03:47.486Z,0.44
2023-04-08T01:04:50.319Z,0.42
2023-04-08T01:05:53.505Z,0.43
2023-04-08T01:06:56.279Z,0.47
2023-04-08T01:07:59.361Z,0.46
2023-04-08T01:09:02.121Z,0.50
2023-04-08T01:10:04.901Z,0.52
2023-04-08T01:11:07.768Z,0.52
2023-04-08T01:12:10.652Z,0.55
2023-04-08T01:13:13.414Z,0.45
2023-04-08T01:14:16.208Z,0.49
2023-04-08T01:15:18.964Z,0.51
2023-04-08T01:16:21.829Z,0.58
2023-04-08T01:17:24.645Z,0.55
2023-04-08T01:18:27.696Z,0.47
2023-04-08T01:19:30.796Z,0.51
2023-04-08T01:20:35.547Z,0.78
2023-04-08T01:21:38.469Z,0.44
2023-04-08T01:22:41.236Z,0.47
2023-04-08T01:23:44.119Z,0.52
2023-04-08T01:24:47.294Z,0.64
2023-04-08T01:25:50.471Z,0.58
2023-04-08T01:26:53.244Z,0.46
2023-04-08T01:27:56.352Z,0.75
2023-04-08T01:28:59.542Z,0.59
2023-04-08T01:30:02.386Z,0.51
2023-04-08T01:31:05.125Z,0.53
2023-04-08T01:32:07.929Z,0.92
2023-04-08T01:33:11.113Z,0.59
2023-04-08T01:34:13.982Z,0.44
2023-04-08T01:35:16.755Z,0.45
2023-04-08T01:36:19.423Z,0.62
2023-04-08T01:37:22.710Z,0.47
2023-04-08T01:38:25.377Z,0.48
2023-04-08T01:39:28.463Z,0.54
2023-04-08T01:40:31.313Z,0.60
2023-04-08T01:41:34.011Z,0.65
2023-04-08T01:42:48.928Z,0.37
2023-04-08T01:43:51.628Z,0.75
2023-04-08T01:44:54.403Z,0.65
2023-04-08T01:45:57.178Z,0.78
2023-04-08T01:47:00.005Z,0.63
2023-04-08T01:48:02.968Z,0.52
2023-04-08T01:49:05.706Z,0.65
2023-04-08T01:50:09.097Z,0.59
2023-04-08T01:51:11.861Z,0.72
2023-04-08T01:52:14.841Z,0.60
2023-04-08T01:53:17.920Z,0.43
2023-04-08T01:54:21.017Z,0.62
2023-04-08T01:55:24.074Z,0.50
2023-04-08T01:56:27.093Z,0.47
2023-04-08T01:57:30.045Z,0.49
2023-04-08T01:58:33.150Z,0.62
2023-04-08T01:59:36.184Z,0.61
2023-04-08T02:00:38.859Z,0.49
2023-04-08T02:01:41.740Z,0.50
2023-04-08T02:02:44.683Z,0.43
2023-04-08T02:03:47.650Z,0.60
2023-04-08T02:04:50.444Z,0.59
2023-04-08T02:05:53.128Z,0.48
2023-04-08T02:06:56.112Z,0.44
2023-04-08T02:07:59.182Z,0.49
2023-04-08T02:09:01.992Z,0.51
2023-04-08T02:10:04.936Z,0.57
2023-04-08T02:11:08.035Z,0.50
2023-04-08T02:12:10.994Z,0.57
2023-04-08T02:13:14.075Z,0.60
2023-04-08T02:14:17.047Z,0.58
2023-04-08T02:15:19.715Z,0.50
2023-04-08T02:16:22.515Z,0.50
2023-04-08T02:17:25.466Z,0.50
2023-04-08T02:18:28.319Z,0.40
2023-04-08T02:19:31.136Z,0.51
2023-04-08T02:20:34.027Z,0.50
2023-04-08T02:21:37.071Z,0.52
2023-04-08T02:22:40.151Z,0.62
2023-04-08T02:23:42.817Z,0.49
2023-04-08T02:24:45.589Z,0.45
2023-04-08T02:25:48.364Z,0.53
2023-04-08T02:26:51.440Z,0.50
2023-04-08T02:27:54.416Z,0.61
2023-04-08T02:28:57.496Z,0.50
2023-04-08T02:30:00.473Z,0.47
2023-04-08T02:31:03.552Z,0.53
2023-04-08T02:32:06.632Z,0.51
2023-04-08T02:33:09.750Z,0.48
2023-04-08T02:34:12.520Z,0.56
2023-04-08T02:35:15.568Z,0.65
2023-04-08T02:36:18.542Z,0.67
2023-04-08T02:37:21.415Z,0.55
2023-04-08T02:38:24.495Z,0.67
2023-04-08T02:39:27.163Z,0.73
2023-04-08T02:40:30.041Z,0.56
2023-04-08T02:41:34.039Z,0.58
2023-04-08T02:42:36.812Z,0.59
2023-04-08T02:43:39.593Z,0.51
2023-04-08T02:44:42.361Z,0.68
2023-04-08T02:45:45.136Z,0.68
2023-04-08T02:46:47.898Z,0.60
2023-04-08T02:47:50.691Z,0.52
2023-04-08T02:48:53.448Z,0.55
2023-04-08T02:49:56.113Z,0.60
2023-04-08T02:50:58.885Z,0.58
2023-04-08T02:52:02.116Z,0.52
2023-04-08T02:53:04.940Z,0.65
2023-04-08T02:54:07.720Z,0.64
2023-04-08T02:55:10.727Z,0.61
2023-04-08T02:56:13.573Z,0.59
2023-04-08T02:57:16.543Z,0.59
2023-04-08T02:58:19.624Z,0.50
2023-04-08T02:59:22.394Z,0.52
2023-04-08T03:00:25.375Z,0.60
2023-04-08T03:01:28.088Z,0.53
2023-04-08T03:02:31.116Z,0.48
2023-04-08T03:03:34.324Z,0.50
2023-04-08T03:04:37.279Z,0.50
2023-04-08T03:05:40.070Z,0.50
2023-04-08T03:06:42.826Z,0.47
2023-04-08T03:07:45.596Z,0.45
2023-04-08T03:08:48.588Z,0.56
2023-04-08T03:09:51.448Z,0.50
2023-04-08T03:10:54.126Z,0.50
2023-04-08T03:11:56.890Z,0.55
2023-04-08T03:13:00.992Z,0.64
2023-04-08T03:14:03.765Z,0.59
2023-04-08T03:15:06.533Z,0.62
2023-04-08T03:16:09.224Z,0.71
2023-04-08T03:17:11.986Z,0.52
2023-04-08T03:18:14.751Z,0.54
2023-04-08T03:19:17.545Z,0.40
2023-04-08T03:20:20.200Z,0.40
2023-04-08T03:21:22.862Z,0.50
2023-04-08T03:22:29.124Z,0.63
2023-04-08T03:23:31.899Z,0.66
2023-04-08T03:24:34.558Z,0.64
2023-04-08T03:25:37.227Z,0.52
2023-04-08T03:26:39.998Z,0.44
2023-04-08T03:27:42.770Z,0.65
2023-04-08T03:28:45.856Z,0.83
2023-04-08T03:29:48.942Z,0.52
2023-04-08T03:30:52.012Z,0.67
2023-04-08T03:31:54.712Z,0.55
2023-04-08T03:32:57.516Z,0.52
2023-04-08T03:34:00.636Z,0.47
2023-04-08T03:35:03.423Z,0.54
2023-04-08T03:36:06.307Z,0.88
2023-04-08T03:37:09.075Z,0.53
2023-04-08T03:38:11.940Z,0.52
2023-04-08T03:39:14.905Z,0.53
2023-04-08T03:40:17.676Z,0.56
2023-04-08T03:41:20.451Z,0.48
2023-04-08T03:42:23.223Z,0.34
2023-04-08T03:43:26.314Z,0.43
2023-04-08T03:44:29.596Z,0.60
2023-04-08T03:45:32.564Z,0.40
2023-04-08T03:46:35.338Z,0.43
2023-04-08T03:47:38.467Z,0.44
2023-04-08T03:48:41.390Z,0.42
2023-04-08T03:49:44.397Z,0.50
2023-04-08T03:50:47.347Z,0.51
2023-04-08T03:51:50.225Z,0.51
2023-04-08T03:52:53.001Z,0.48
2023-04-08T03:53:55.969Z,0.46
2023-04-08T03:54:59.048Z,0.49
2023-04-08T03:56:02.026Z,0.48
2023-04-08T03:57:04.800Z,0.38
2023-04-08T03:58:07.567Z,0.70
2023-04-08T03:59:10.547Z,0.58
2023-04-08T04:00:13.747Z,0.45
2023-04-08T04:01:23.081Z,0.69
2023-04-08T04:02:25.963Z,0.97
2023-04-08T04:03:29.521Z,1.58
2023-04-08T04:04:32.526Z,0.75
2023-04-08T04:05:35.273Z,0.43
2023-04-08T04:06:38.048Z,0.52
2023-04-08T04:07:40.810Z,0.42
2023-04-08T04:08:43.587Z,0.50
2023-04-08T04:09:46.463Z,0.50
2023-04-08T04:10:49.134Z,0.50
2023-04-08T04:11:51.900Z,0.55
2023-04-08T04:12:54.676Z,0.46
2023-04-08T04:13:57.353Z,0.71
2023-04-08T04:15:00.332Z,0.72
2023-04-08T04:16:03.107Z,0.51
2023-04-08T04:17:05.873Z,0.48
2023-04-08T04:18:09.132Z,0.47
2023-04-08T04:19:12.330Z,0.78
2023-04-08T04:20:15.320Z,0.74
2023-04-08T04:21:19.210Z,0.62
2023-04-08T04:22:22.307Z,0.55
2023-04-08T04:23:25.265Z,0.57
2023-04-08T04:24:28.240Z,0.62
2023-04-08T04:25:30.913Z,0.49
2023-04-08T04:26:33.985Z,0.64
2023-04-08T04:27:36.965Z,0.60
2023-04-08T04:28:39.952Z,0.74
2023-04-08T04:29:42.719Z,0.86
2023-04-08T04:30:45.415Z,2.45
2023-04-08T04:31:48.054Z,0.53
2023-04-08T04:32:51.079Z,0.52
2023-04-08T04:33:53.711Z,0.52
2023-04-08T04:34:56.473Z,0.42
2023-04-08T04:35:59.281Z,0.43
2023-04-08T04:37:02.322Z,0.52
2023-04-08T04:38:05.518Z,0.53
2023-04-08T04:39:08.177Z,0.42
2023-04-08T04:40:10.849Z,0.47
2023-04-08T04:41:13.721Z,0.55
2023-04-08T04:42:16.800Z,0.52
2023-04-08T04:43:25.417Z,0.50
2023-04-08T04:44:28.182Z,0.54
2023-04-08T04:45:30.953Z,0.67
2023-04-08T04:46:34.259Z,0.48
2023-04-08T04:47:37.040Z,0.49
2023-04-08T04:48:39.682Z,0.62
2023-04-08T04:49:42.449Z,1.22
2023-04-08T04:50:45.237Z,0.56
2023-04-08T04:51:47.896Z,0.55
2023-04-08T04:52:55.943Z,0.51
2023-04-08T04:53:58.764Z,0.73
2023-04-08T04:55:01.531Z,0.74
2023-04-08T04:56:04.204Z,0.72
2023-04-08T04:57:06.789Z,0.64
2023-04-08T04:58:09.440Z,0.75
2023-04-08T04:59:12.212Z,0.48
2023-04-08T05:00:14.886Z,0.55
2023-04-08T05:01:17.895Z,0.57
2023-04-08T05:02:20.757Z,0.52
2023-04-08T05:03:23.563Z,0.50
2023-04-08T05:04:26.185Z,0.60
2023-04-08T05:05:29.241Z,0.56
2023-04-08T05:06:32.155Z,0.52
2023-04-08T05:07:34.913Z,0.72
2023-04-08T05:08:37.797Z,0.52
2023-04-08T05:09:40.656Z,0.52
2023-04-08T05:11:38.631Z,0.77
2023-04-08T05:12:41.299Z,0.58
2023-04-08T05:13:47.635Z,1.29
2023-04-08T05:14:50.537Z,0.64
2023-04-08T05:15:53.416Z,0.54
2023-04-08T05:16:56.174Z,0.88
2023-04-08T05:17:58.924Z,0.68
2023-04-08T05:19:01.835Z,0.52
2023-04-08T05:20:04.508Z,0.58
2023-04-08T05:21:07.294Z,0.72
2023-04-08T05:22:10.039Z,0.91
2023-04-08T05:23:13.015Z,0.75
2023-04-08T05:24:16.102Z,0.78
2023-04-08T05:25:18.972Z,0.68
2023-04-08T05:26:21.948Z,0.79
2023-04-08T05:27:24.821Z,0.82
2023-04-08T05:28:27.600Z,0.94
2023-04-08T05:29:30.264Z,0.83
2023-04-08T05:30:33.036Z,0.94
2023-04-08T05:31:35.764Z,0.83
2023-04-08T05:32:38.512Z,0.72
2023-04-08T05:33:41.265Z,0.79
2023-04-08T05:34:43.824Z,0.72
2023-04-08T05:35:46.421Z,0.87
2023-04-08T05:36:50.701Z,0.81
2023-04-08T05:37:53.472Z,0.76
2023-04-08T05:38:56.257Z,0.81
2023-04-08T05:39:59.021Z,0.88
2023-04-08T05:41:01.680Z,0.78
2023-04-08T05:42:04.573Z,0.78
2023-04-08T05:43:07.338Z,0.92
2023-04-08T05:44:10.206Z,0.98
2023-04-08T05:45:12.992Z,1.03
2023-04-08T05:46:21.085Z,0.92
2023-04-08T05:47:23.812Z,0.94
2023-04-08T05:48:26.718Z,1.02
2023-04-08T05:49:29.512Z,0.82
2023-04-08T05:50:32.272Z,1.00
2023-04-08T05:51:34.942Z,1.08
2023-04-08T05:52:37.611Z,0.85
2023-04-08T05:53:41.463Z,1.38
2023-04-08T05:54:44.190Z,1.32
2023-04-08T05:55:50.219Z,1.39
2023-04-08T05:56:52.989Z,1.07
2023-04-08T05:57:55.775Z,1.02
2023-04-08T05:58:58.327Z,1.11
2023-04-08T06:00:01.109Z,1.13
2023-04-08T06:01:03.875Z,1.12
2023-04-08T06:02:06.639Z,1.22
2023-04-08T06:03:11.087Z,1.38
2023-04-08T06:04:14.376Z,1.60
2023-04-08T06:05:17.017Z,1.25
2023-04-08T06:06:19.882Z,1.31
2023-04-08T06:07:22.563Z,1.57
2023-04-08T06:08:25.218Z,1.37
2023-04-08T06:09:28.104Z,1.84
2023-04-08T06:10:30.768Z,1.55
2023-04-08T06:11:33.437Z,1.48
2023-04-08T06:12:36.113Z,1.50
2023-04-08T06:13:38.697Z,1.56
2023-04-08T06:14:41.451Z,1.38
2023-04-08T06:15:44.110Z,1.22
2023-04-08T06:16:46.823Z,1.59
2023-04-08T06:17:50.413Z,1.45
2023-04-08T06:18:58.638Z,1.41
2023-04-08T06:20:01.243Z,1.58
2023-04-08T06:21:04.015Z,1.64
2023-04-08T06:22:06.688Z,1.69
2023-04-08T06:23:09.465Z,1.47
2023-04-08T06:24:12.128Z,1.62
2023-04-08T06:25:15.024Z,1.41
2023-04-08T06:26:17.789Z,1.78
2023-04-08T06:27:20.555Z,2.01
2023-04-08T06:28:23.314Z,2.02
2023-04-08T06:29:25.987Z,1.47
2023-04-08T06:30:28.812Z,1.72
2023-04-08T06:31:32.747Z,1.52
2023-04-08T06:32:35.780Z,1.79
2023-04-08T06:33:38.508Z,1.55
2023-04-08T06:34:41.184Z,1.53
2023-04-08T06:35:43.873Z,1.75
2023-04-08T06:36:46.617Z,1.46
2023-04-08T06:37:49.293Z,1.63
2023-04-08T06:38:57.274Z,1.72
2023-04-08T06:39:59.854Z,1.64
2023-04-08T06:41:02.422Z,1.63
2023-04-08T06:42:05.198Z,1.64
2023-04-08T06:43:07.790Z,1.68
2023-04-08T06:44:10.535Z,1.92
2023-04-08T06:45:13.412Z,1.74
2023-04-08T06:46:16.380Z,1.55
2023-04-08T06:47:21.184Z,1.67
2023-04-08T06:48:23.974Z,1.71
2023-04-08T06:49:26.954Z,1.57
2023-04-08T06:50:29.829Z,2.08
2023-04-08T06:51:32.612Z,2.68
2023-04-08T06:52:35.393Z,1.99
2023-04-08T06:53:38.145Z,1.78
2023-04-08T06:54:40.814Z,1.99
2023-04-08T06:55:43.688Z,1.82
2023-04-08T06:56:46.767Z,1.78
2023-04-08T06:57:49.947Z,2.07
2023-04-08T06:58:52.936Z,1.88
2023-04-08T06:59:55.805Z,1.83
2023-04-08T07:00:58.805Z,1.89
2023-04-08T07:02:01.547Z,2.10
2023-04-08T07:03:04.518Z,1.95
2023-04-08T07:04:07.493Z,2.32
2023-04-08T07:05:10.286Z,1.95
2023-04-08T07:06:13.459Z,2.22
2023-04-08T07:07:16.334Z,2.35
2023-04-08T07:08:19.414Z,2.05
2023-04-08T07:09:23.834Z,1.95
2023-04-08T07:10:26.808Z,1.83
2023-04-08T07:11:29.809Z,1.83
2023-04-08T07:12:32.357Z,1.99
2023-04-08T07:13:35.329Z,1.95
2023-04-08T07:14:38.305Z,2.22
2023-04-08T07:15:41.281Z,2.11
2023-04-08T07:16:44.426Z,2.08
2023-04-08T07:17:48.414Z,2.29
2023-04-08T07:18:54.368Z,2.19
2023-04-08T07:19:57.191Z,2.15
2023-04-08T07:20:59.849Z,1.97
2023-04-08T07:22:04.058Z,2.33
2023-04-08T07:23:06.727Z,2.13
2023-04-08T07:24:09.499Z,2.08
2023-04-08T07:25:12.177Z,2.65
2023-04-08T07:26:14.833Z,2.51
2023-04-08T07:27:17.614Z,2.37
2023-04-08T07:28:20.284Z,2.72
2023-04-08T07:29:22.949Z,2.39
2023-04-08T07:30:26.048Z,2.30
2023-04-08T07:31:29.141Z,2.42
2023-04-08T07:32:32.414Z,2.51
2023-04-08T07:33:35.187Z,2.25
2023-04-08T07:34:38.143Z,2.13
2023-04-08T07:35:41.166Z,2.39
2023-04-08T07:36:44.098Z,2.64
2023-04-08T07:37:47.070Z,2.46
2023-04-08T07:38:50.218Z,2.48
2023-04-08T07:39:53.335Z,2.37
2023-04-08T07:40:56.212Z,2.31
2023-04-08T07:41:59.087Z,2.19
2023-04-08T07:43:02.071Z,2.25
2023-04-08T07:44:05.157Z,2.35
2023-04-08T07:45:08.134Z,2.31
2023-04-08T07:46:11.057Z,2.52
2023-04-08T07:47:14.181Z,2.48
2023-04-08T07:48:17.261Z,2.52
2023-04-08T07:49:20.227Z,2.75
2023-04-08T07:50:23.217Z,2.43
2023-04-08T07:51:26.180Z,2.70
2023-04-08T07:52:29.265Z,2.60
2023-04-08T07:53:32.340Z,2.44
2023-04-08T07:54:38.494Z,2.60
2023-04-08T07:55:41.162Z,2.52
2023-04-08T07:56:44.454Z,2.79
2023-04-08T07:57:47.428Z,2.75
2023-04-08T07:58:52.055Z,2.85
2023-04-08T07:59:54.716Z,2.74
2023-04-08T08:00:57.591Z,2.81
2023-04-08T08:02:00.512Z,2.70
2023-04-08T08:03:03.443Z,2.33
2023-04-08T08:04:06.332Z,2.54
2023-04-08T08:05:09.241Z,2.72
2023-04-08T08:06:11.854Z,2.65
2023-04-08T08:07:14.537Z,2.47
2023-04-08T08:08:17.302Z,2.48
2023-04-08T08:09:19.874Z,2.69
2023-04-08T08:10:22.476Z,2.72
2023-04-08T08:11:25.320Z,2.51
2023-04-08T08:12:31.600Z,2.75
2023-04-08T08:13:34.433Z,2.77
2023-04-08T08:14:37.412Z,2.88
2023-04-08T08:15:40.319Z,2.97
2023-04-08T08:16:43.265Z,2.76
2023-04-08T08:17:46.051Z,2.79
2023-04-08T08:18:49.016Z,2.72
2023-04-08T08:19:51.790Z,2.82
2023-04-08T08:20:54.668Z,2.88
2023-04-08T08:21:57.542Z,2.96
2023-04-08T08:23:00.322Z,2.85
2023-04-08T08:24:02.880Z,2.68
2023-04-08T08:25:07.461Z,3.10
2023-04-08T08:26:10.322Z,3.11
2023-04-08T08:27:13.036Z,3.07
2023-04-08T08:28:15.606Z,3.18
2023-04-08T08:29:18.384Z,3.16
2023-04-08T08:30:23.623Z,3.12
2023-04-08T08:31:26.251Z,3.34
2023-04-08T08:32:28.865Z,2.88
2023-04-08T08:33:31.635Z,3.16
2023-04-08T08:34:34.389Z,3.27
2023-04-08T08:35:37.107Z,3.17
2023-04-08T08:36:39.731Z,3.26
2023-04-08T08:37:42.397Z,3.19
2023-04-08T08:38:45.068Z,3.24
2023-04-08T08:39:47.840Z,3.08
2023-04-08T08:40:50.519Z,2.85
2023-04-08T08:41:53.077Z,3.19
2023-04-08T08:42:55.649Z,3.08
2023-04-08T08:43:58.314Z,2.73
2023-04-08T08:45:00.983Z,2.83
2023-04-08T08:46:03.848Z,3.25
2023-04-08T08:47:07.941Z,3.46
2023-04-08T08:48:10.530Z,3.31
2023-04-08T08:49:13.199Z,3.07
2023-04-08T08:50:16.194Z,2.83
2023-04-08T08:51:19.253Z,3.21
2023-04-08T08:52:21.936Z,3.32
2023-04-08T08:53:24.496Z,3.21
2023-04-08T08:54:32.448Z,2.99
2023-04-08T08:56:00.014Z,3.14
2023-04-08T08:56:39.570Z,3.04
2023-04-08T08:57:42.446Z,2.90
2023-04-08T08:58:45.222Z,2.89
2023-04-08T08:59:48.096Z,3.05
2023-04-08T09:00:50.966Z,3.07
2023-04-08T09:01:53.987Z,3.08
2023-04-08T09:02:57.035Z,3.28
2023-04-08T09:04:00.198Z,3.20
2023-04-08T09:05:03.686Z,3.42
2023-04-08T09:06:06.568Z,3.43
2023-04-08T09:07:09.545Z,2.89
2023-04-08T09:08:12.219Z,3.15
2023-04-08T09:09:14.892Z,3.26
2023-04-08T09:10:17.554Z,3.13
2023-04-08T09:11:20.343Z,3.25
2023-04-08T09:12:23.095Z,3.06
2023-04-08T09:13:25.775Z,3.25
2023-04-08T09:14:29.779Z,2.83
2023-04-08T09:15:32.753Z,3.02
2023-04-08T09:16:36.462Z,3.01
2023-04-08T09:17:39.364Z,3.29
2023-04-08T09:18:42.392Z,3.27
2023-04-08T09:19:45.163Z,3.25
2023-04-08T09:20:47.935Z,3.29
2023-04-08T09:21:50.811Z,3.08
2023-04-08T09:22:53.704Z,3.28
2023-04-08T09:23:56.562Z,3.06
2023-04-08T09:24:59.334Z,3.05
2023-04-08T09:26:02.325Z,3.45
2023-04-08T09:27:05.186Z,3.28
2023-04-08T09:28:07.957Z,3.28
2023-04-08T09:29:24.016Z,3.06
2023-04-08T09:30:15.244Z,3.05
2023-04-08T09:31:18.139Z,2.91
2023-04-08T09:32:20.992Z,3.32
2023-04-08T09:33:23.870Z,3.38
2023-04-08T09:34:26.740Z,3.23
2023-04-08T09:35:29.688Z,3.45
2023-04-08T09:36:35.867Z,3.14
2023-04-08T09:37:43.454Z,2.83
2023-04-08T09:38:46.370Z,3.07
2023-04-08T09:39:49.209Z,3.16
2023-04-08T09:40:52.216Z,3.17
2023-04-08T09:41:55.057Z,3.43
2023-04-08T09:42:57.828Z,3.28
2023-04-08T09:44:00.868Z,3.46
2023-04-08T09:45:03.579Z,3.15
2023-04-08T09:46:06.303Z,3.11
2023-04-08T09:47:09.126Z,3.40
2023-04-08T09:48:12.172Z,3.28
2023-04-08T09:49:17.133Z,3.49
2023-04-08T09:50:19.751Z,3.08
2023-04-08T09:51:22.466Z,2.99
2023-04-08T09:52:26.881Z,3.23
2023-04-08T09:53:29.650Z,3.28
2023-04-08T09:54:32.630Z,3.43
2023-04-08T09:55:36.776Z,3.44
2023-04-08T09:56:39.395Z,3.51
2023-04-08T09:57:42.091Z,4.16
2023-04-08T09:58:44.845Z,3.58
2023-04-08T09:59:47.411Z,3.47
2023-04-08T10:00:50.094Z,3.38
2023-04-08T10:01:52.700Z,3.70
2023-04-08T10:02:55.500Z,3.52
2023-04-08T10:03:58.373Z,3.41
2023-04-08T10:05:01.293Z,3.08
2023-04-08T10:06:04.358Z,3.23
2023-04-08T10:07:07.552Z,3.17
2023-04-08T10:08:10.406Z,3.22
2023-04-08T10:09:13.390Z,3.57
2023-04-08T10:10:15.972Z,3.48
2023-04-08T10:11:18.937Z,3.12
2023-04-08T10:12:21.900Z,3.31
2023-04-08T10:13:24.880Z,3.27
2023-04-08T10:14:27.656Z,2.87
2023-04-08T10:15:30.224Z,3.14
2023-04-08T10:16:33.369Z,3.13
2023-04-08T10:17:36.290Z,3.16
2023-04-08T10:18:39.152Z,3.18
2023-04-08T10:19:42.098Z,3.20
2023-04-08T10:20:50.748Z,3.32
2023-04-08T10:21:53.515Z,3.17
2023-04-08T10:22:56.392Z,3.17
2023-04-08T10:23:59.283Z,3.18
2023-04-08T10:25:02.440Z,3.08
2023-04-08T10:26:16.791Z,3.41
2023-04-08T10:27:19.466Z,2.91
2023-04-08T10:28:22.433Z,3.07
2023-04-08T10:29:25.405Z,2.98
2023-04-08T10:30:27.982Z,3.12
2023-04-08T10:31:30.702Z,2.97
2023-04-08T10:32:33.680Z,3.09
2023-04-08T10:33:40.002Z,3.32
2023-04-08T10:34:40.700Z,3.12
2023-04-08T10:35:43.695Z,2.87
2023-04-08T10:36:46.345Z,2.88
2023-04-08T10:37:49.016Z,2.71
2023-04-08T10:38:51.688Z,3.17
2023-04-08T10:39:54.354Z,2.92
2023-04-08T10:40:57.435Z,2.97
2023-04-08T10:42:00.307Z,2.65
2023-04-08T10:43:03.287Z,2.52
2023-04-08T10:44:07.859Z,2.65
2023-04-08T10:45:10.472Z,2.44
2023-04-08T10:46:13.199Z,2.82
2023-04-08T10:47:16.218Z,2.55
2023-04-08T10:48:19.207Z,2.28
2023-04-08T10:49:22.999Z,2.39
2023-04-08T10:50:28.944Z,2.47
2023-04-08T10:51:33.704Z,2.36
2023-04-08T10:52:36.341Z,2.16
2023-04-08T10:53:38.768Z,2.19
2023-04-08T10:54:41.360Z,2.68
2023-04-08T10:55:44.030Z,2.14
2023-04-08T10:56:46.702Z,2.26
2023-04-08T10:57:49.368Z,2.36
2023-04-08T10:58:57.764Z,2.09
2023-04-08T11:00:00.341Z,2.35
2023-04-08T11:01:02.971Z,2.43
2023-04-08T11:02:05.775Z,2.19
2023-04-08T11:03:08.779Z,2.14
2023-04-08T11:04:11.801Z,1.92
2023-04-08T11:05:15.849Z,1.94
2023-04-08T11:06:18.723Z,2.11
2023-04-08T11:07:21.506Z,1.83
2023-04-08T11:08:24.571Z,2.07
2023-04-08T11:09:27.450Z,2.11
2023-04-08T11:10:30.422Z,2.21
2023-04-08T11:11:33.396Z,1.93
2023-04-08T11:12:36.183Z,1.97
2023-04-08T11:13:38.837Z,2.11
2023-04-08T11:14:41.920Z,1.74
2023-04-08T11:15:44.841Z,1.90
2023-04-08T11:16:47.772Z,2.08
2023-04-08T11:17:50.677Z,1.82
2023-04-08T11:18:53.221Z,2.07
2023-04-08T11:19:55.885Z,1.74
2023-04-08T11:21:01.288Z,1.66
2023-04-08T11:22:04.192Z,1.83
2023-04-08T11:23:07.068Z,1.65
2023-04-08T11:24:09.946Z,1.85
2023-04-08T11:25:12.825Z,1.82
2023-04-08T11:26:15.695Z,1.77
2023-04-08T11:27:18.482Z,1.87
2023-04-08T11:28:21.242Z,1.93
2023-04-08T11:29:24.123Z,1.81
2023-04-08T11:30:27.103Z,1.74
2023-04-08T11:31:30.004Z,1.78
2023-04-08T11:32:32.586Z,1.77
2023-04-08T11:33:35.133Z,1.96
2023-04-08T11:34:37.868Z,1.97
2023-04-08T11:35:40.618Z,1.98
2023-04-08T11:36:43.296Z,1.84
2023-04-08T11:37:46.170Z,1.67
2023-04-08T11:38:49.068Z,2.02
2023-04-08T11:39:52.245Z,1.95
2023-04-08T11:40:55.217Z,1.86
2023-04-08T11:41:58.193Z,1.86
2023-04-08T11:43:01.077Z,1.64
2023-04-08T11:44:03.642Z,1.68
2023-04-08T11:45:06.422Z,1.72
2023-04-08T11:46:09.235Z,1.72
2023-04-08T11:47:11.951Z,1.95
2023-04-08T11:48:14.728Z,1.74
2023-04-08T11:49:17.333Z,1.48
2023-04-08T11:50:19.867Z,1.43
2023-04-08T11:51:22.530Z,1.74
2023-04-08T11:52:25.411Z,1.57
2023-04-08T11:53:28.278Z,1.48
2023-04-08T11:54:31.054Z,1.72
2023-04-08T11:55:33.727Z,1.43
2023-04-08T11:56:36.393Z,1.63
2023-04-08T11:57:39.266Z,1.50
2023-04-08T11:58:43.957Z,1.55
2023-04-08T11:59:46.553Z,1.49
2023-04-08T12:00:49.332Z,1.52
2023-04-08T12:01:52.020Z,1.64
2023-04-08T12:02:54.757Z,1.48
2023-04-08T12:03:58.281Z,1.42
2023-04-08T12:05:01.764Z,1.32
2023-04-08T12:06:04.311Z,1.64
2023-04-08T12:07:06.988Z,1.55
2023-04-08T12:08:11.522Z,1.49
2023-04-08T12:09:14.172Z,1.43
2023-04-08T12:10:22.268Z,1.40
2023-04-08T12:11:24.935Z,1.52
2023-04-08T12:12:27.600Z,1.40
2023-04-08T12:13:30.277Z,1.58
2023-04-08T12:14:32.951Z,1.60
2023-04-08T12:15:35.726Z,1.38
2023-04-08T12:16:38.361Z,1.34
2023-04-08T12:17:41.071Z,1.45
2023-04-08T12:18:43.732Z,1.50
2023-04-08T12:19:47.529Z,1.37
2023-04-08T12:20:50.295Z,1.22
2023-04-08T12:21:52.977Z,1.29
2023-04-08T12:22:55.631Z,1.42
2023-04-08T12:24:01.882Z,1.42
2023-04-08T12:25:04.562Z,1.41
2023-04-08T12:26:07.233Z,1.37
2023-04-08T12:27:10.230Z,1.32
2023-04-08T12:28:12.875Z,1.31
2023-04-08T12:29:15.338Z,1.21
2023-04-08T12:30:18.224Z,1.48
2023-04-08T12:31:20.799Z,1.42
2023-04-08T12:32:23.467Z,1.43
2023-04-08T12:33:26.221Z,1.48
2023-04-08T12:34:29.096Z,1.43
2023-04-08T12:35:32.185Z,1.41
2023-04-08T12:36:34.848Z,1.47
2023-04-08T12:37:37.620Z,1.24
2023-04-08T12:38:40.304Z,1.54
2023-04-08T12:39:42.965Z,1.48
2023-04-08T12:40:45.580Z,1.69
2023-04-08T12:41:48.204Z,1.43
2023-04-08T12:42:51.180Z,1.57
2023-04-08T12:43:54.062Z,1.36
2023-04-08T12:44:56.622Z,1.45
2023-04-08T12:45:59.402Z,1.52
2023-04-08T12:47:02.373Z,1.59
2023-04-08T12:48:05.225Z,1.52
2023-04-08T12:49:08.509Z,1.52
2023-04-08T12:50:11.760Z,1.56
2023-04-08T12:51:14.269Z,1.28
2023-04-08T12:52:17.050Z,1.32
2023-04-08T12:53:20.241Z,1.52
2023-04-08T12:54:23.009Z,1.50
2023-04-08T12:55:25.885Z,1.50
2023-04-08T12:56:28.858Z,1.50
2023-04-08T12:57:31.729Z,1.42
2023-04-08T12:58:34.614Z,1.52
2023-04-08T12:59:37.481Z,1.34
2023-04-08T13:00:40.382Z,1.58
2023-04-08T13:01:43.217Z,1.45
2023-04-08T13:02:48.033Z,1.40
2023-04-08T13:03:51.002Z,1.36
2023-04-08T13:04:53.593Z,1.39
2023-04-08T13:05:56.179Z,1.40
2023-04-08T13:06:58.848Z,1.54
2023-04-08T13:08:01.515Z,1.30
2023-04-08T13:09:04.141Z,1.32
2023-04-08T13:10:06.855Z,1.22
2023-04-08T13:11:09.622Z,1.38
2023-04-08T13:12:12.312Z,1.46
2023-04-08T13:13:20.167Z,1.30
2023-04-08T13:14:22.743Z,1.51
2023-04-08T13:15:27.629Z,1.42
2023-04-08T13:16:29.657Z,1.47
2023-04-08T13:17:32.327Z,1.32
2023-04-08T13:18:35.063Z,1.47
2023-04-08T13:19:37.840Z,1.42
2023-04-08T13:20:40.523Z,1.42
2023-04-08T13:21:45.546Z,1.57
2023-04-08T13:22:47.383Z,1.54
2023-04-08T13:23:50.055Z,1.74
2023-04-08T13:24:52.822Z,1.56
2023-04-08T13:25:55.402Z,1.52
2023-04-08T13:26:58.059Z,1.82
2023-04-08T13:28:00.739Z,1.58
2023-04-08T13:29:04.048Z,1.45
2023-04-08T13:30:08.553Z,1.55
2023-04-08T13:31:11.403Z,1.51
2023-04-08T13:32:14.005Z,1.72
2023-04-08T13:33:16.640Z,1.65
2023-04-08T13:34:19.307Z,1.63
2023-04-08T13:35:22.085Z,1.40
2023-04-08T13:36:24.772Z,1.70
2023-04-08T13:37:27.418Z,1.68
2023-04-08T13:38:29.988Z,1.57
2023-04-08T13:39:32.661Z,1.67
2023-04-08T13:40:35.442Z,1.57
2023-04-08T13:41:38.210Z,1.57
2023-04-08T13:42:40.866Z,1.36
2023-04-08T13:43:43.535Z,1.74
2023-04-08T13:44:46.204Z,1.57
2023-04-08T13:45:50.630Z,1.50
2023-04-08T13:46:53.294Z,1.49
2023-04-08T13:47:55.869Z,1.50
2023-04-08T13:48:58.516Z,1.60
2023-04-08T13:50:01.214Z,1.65
2023-04-08T13:51:03.862Z,1.58
2023-04-08T13:52:06.639Z,1.68
2023-04-08T13:53:09.202Z,1.67
2023-04-08T13:54:12.078Z,1.58
2023-04-08T13:55:14.643Z,1.57
2023-04-08T13:56:17.321Z,1.58
2023-04-08T13:57:20.083Z,1.77
2023-04-08T13:58:24.244Z,1.48
2023-04-08T13:59:27.060Z,1.51
2023-04-08T14:00:29.935Z,1.47